THY4VH LTFM-EDDB
Flight info
| Callsign | THY4VH |
|---|---|
| Flight time | N/A |
| Altitude | 38000 |
| Route | TUDBU1D/35L TUDBU Q26 ETUBA DCT EVRIK DCT LITKU DCT NIDOK DCT OGDAS DCT DESEN DCT DIMEX T205 NUKRO NUKRO1R |
| Aircraft | B77W/H-SDE1E2E3FGHIJ2J3J4J5M1RWXY/LB1D1 |
Departure
| Time | N/A |
|---|---|
| Airport | İstanbul Airport (LTFM) |
Arrival
| Time | 2026-04-30 18:57 |
|---|---|
| Airport | Berlin Brandenburg Airport (EDDB) |
| Time | Latitude | Longitude | Altitude | Speed | Heading |
|---|---|---|---|---|---|
| 2026-04-30 17:39 | 46.58168 | 21.93330 | 38286 ft | 455 kts | 316° |
| 2026-04-30 17:42 | 46.81296 | 21.61856 | 38312 ft | 456 kts | 316° |
| 2026-04-30 17:43 | 46.92863 | 21.45968 | 38314 ft | 456 kts | 316° |
| 2026-04-30 17:44 | 47.06653 | 21.26895 | 38335 ft | 455 kts | 316° |
| 2026-04-30 17:47 | 47.25187 | 21.01036 | 38354 ft | 455 kts | 317° |
| 2026-04-30 17:48 | 47.40697 | 20.79194 | 38370 ft | 456 kts | 317° |
| 2026-04-30 17:50 | 47.59000 | 20.53177 | 38375 ft | 457 kts | 316° |
| 2026-04-30 17:52 | 47.72711 | 20.33511 | 38371 ft | 457 kts | 317° |
| 2026-04-30 17:54 | 47.93145 | 20.03917 | 38375 ft | 455 kts | 317° |
| 2026-04-30 17:56 | 48.11295 | 19.77340 | 38376 ft | 460 kts | 317° |
| 2026-04-30 17:58 | 48.25196 | 19.57271 | 38377 ft | 462 kts | 322° |
| 2026-04-30 18:00 | 48.45375 | 19.33212 | 38381 ft | 463 kts | 323° |
| 2026-04-30 18:01 | 48.57907 | 19.18048 | 38414 ft | 460 kts | 324° |
| 2026-04-30 18:02 | 48.70758 | 19.02402 | 38385 ft | 455 kts | 324° |
| 2026-04-30 18:04 | 48.85449 | 18.84384 | 38424 ft | 451 kts | 323° |
| 2026-04-30 18:06 | 49.06203 | 18.63167 | 38427 ft | 451 kts | 329° |
| 2026-04-30 18:08 | 49.24568 | 18.44592 | 38454 ft | 453 kts | 329° |
| 2026-04-30 18:10 | 49.45634 | 18.23078 | 38471 ft | 455 kts | 329° |
| 2026-04-30 18:11 | 49.63956 | 18.04182 | 38482 ft | 452 kts | 329° |
| 2026-04-30 18:13 | 49.77384 | 17.91857 | 38484 ft | 449 kts | 336° |
| 2026-04-30 18:14 | 49.91295 | 17.80768 | 38476 ft | 450 kts | 335° |
| 2026-04-30 18:15 | 50.07932 | 17.67283 | 38483 ft | 450 kts | 336° |
| 2026-04-30 18:16 | 50.19033 | 17.58228 | 38480 ft | 449 kts | 336° |
| 2026-04-30 18:17 | 50.22171 | 17.55661 | 38500 ft | 449 kts | 336° |
| 2026-04-30 18:18 | 50.30322 | 17.48547 | 38481 ft | 450 kts | 332° |
| 2026-04-30 18:18 | 50.35612 | 17.43290 | 38477 ft | 451 kts | 332° |
| 2026-04-30 18:19 | 50.40895 | 17.37999 | 38491 ft | 451 kts | 332° |
| 2026-04-30 18:19 | 50.46190 | 17.32717 | 38493 ft | 450 kts | 332° |
| 2026-04-30 18:20 | 50.51472 | 17.27455 | 38499 ft | 449 kts | 332° |
| 2026-04-30 18:20 | 50.56757 | 17.22182 | 38497 ft | 449 kts | 332° |
| 2026-04-30 18:21 | 50.62026 | 17.16910 | 38497 ft | 449 kts | 332° |
| 2026-04-30 18:21 | 50.67263 | 17.11654 | 38508 ft | 449 kts | 332° |
| 2026-04-30 18:22 | 50.72523 | 17.06361 | 38462 ft | 449 kts | 333° |
| 2026-04-30 18:22 | 50.80406 | 16.98401 | 38501 ft | 447 kts | 333° |
| 2026-04-30 18:23 | 50.85645 | 16.93093 | 38509 ft | 447 kts | 333° |
| 2026-04-30 18:23 | 50.90888 | 16.87767 | 38508 ft | 447 kts | 332° |
| 2026-04-30 18:24 | 50.98738 | 16.79766 | 38514 ft | 447 kts | 332° |
| 2026-04-30 18:25 | 51.03926 | 16.74460 | 38484 ft | 446 kts | 333° |
| 2026-04-30 18:25 | 51.11750 | 16.66430 | 38517 ft | 446 kts | 333° |
| 2026-04-30 18:26 | 51.19562 | 16.58380 | 38483 ft | 443 kts | 333° |
| 2026-04-30 18:26 | 51.22147 | 16.55707 | 38154 ft | 441 kts | 333° |
| 2026-04-30 18:27 | 51.27245 | 16.50425 | 38119 ft | 437 kts | 333° |
| 2026-04-30 18:28 | 51.34900 | 16.42476 | 37685 ft | 433 kts | 334° |
| 2026-04-30 18:28 | 51.37416 | 16.39852 | 37327 ft | 431 kts | 334° |
| 2026-04-30 18:28 | 51.42369 | 16.34681 | 36660 ft | 426 kts | 335° |
| 2026-04-30 18:29 | 51.44850 | 16.32086 | 36367 ft | 422 kts | 335° |
| 2026-04-30 18:29 | 51.52119 | 16.24463 | 35050 ft | 410 kts | 337° |
| 2026-04-30 18:30 | 51.56063 | 16.20319 | 34277 ft | 405 kts | 337° |
| 2026-04-30 18:30 | 51.61407 | 16.14258 | 33155 ft | 408 kts | 327° |
| 2026-04-30 18:31 | 51.63353 | 16.10880 | 32662 ft | 414 kts | 319° |
| 2026-04-30 18:31 | 51.66392 | 16.02903 | 31887 ft | 422 kts | 306° |
| 2026-04-30 18:32 | 51.67916 | 15.97912 | 31386 ft | 418 kts | 307° |
| 2026-04-30 18:32 | 51.69215 | 15.93756 | 30975 ft | 414 kts | 307° |
| 2026-04-30 18:32 | 51.71796 | 15.85586 | 30085 ft | 408 kts | 307° |
| 2026-04-30 18:33 | 51.73075 | 15.81529 | 29645 ft | 404 kts | 307° |
| 2026-04-30 18:33 | 51.75590 | 15.73531 | 28826 ft | 395 kts | 307° |
| 2026-04-30 18:33 | 51.76827 | 15.69592 | 28374 ft | 392 kts | 307° |
| 2026-04-30 18:34 | 51.77638 | 15.67003 | 28128 ft | 388 kts | 307° |
| 2026-04-30 18:34 | 51.80055 | 15.59281 | 27331 ft | 382 kts | 307° |
| 2026-04-30 18:34 | 51.81247 | 15.55462 | 26942 ft | 379 kts | 307° |
| 2026-04-30 18:35 | 51.82428 | 15.51676 | 26560 ft | 376 kts | 307° |
| 2026-04-30 18:35 | 51.83599 | 15.47913 | 26167 ft | 373 kts | 307° |
| 2026-04-30 18:35 | 51.84759 | 15.44180 | 25791 ft | 371 kts | 307° |
| 2026-04-30 18:36 | 51.87059 | 15.36766 | 25027 ft | 366 kts | 307° |
| 2026-04-30 18:36 | 51.88199 | 15.33083 | 24640 ft | 364 kts | 307° |
| 2026-04-30 18:36 | 51.90453 | 15.25778 | 23822 ft | 361 kts | 307° |
| 2026-04-30 18:37 | 51.91571 | 15.22152 | 23422 ft | 358 kts | 306° |
| 2026-04-30 18:37 | 51.92678 | 15.18555 | 23041 ft | 355 kts | 306° |
| 2026-04-30 18:37 | 51.93773 | 15.14995 | 22667 ft | 352 kts | 306° |
| 2026-04-30 18:37 | 51.94861 | 15.11456 | 22294 ft | 349 kts | 306° |
| 2026-04-30 18:38 | 51.95938 | 15.07948 | 21926 ft | 346 kts | 306° |
| 2026-04-30 18:38 | 51.96990 | 15.04518 | 21568 ft | 343 kts | 306° |
| 2026-04-30 18:38 | 51.98049 | 15.01061 | 21207 ft | 341 kts | 305° |
| 2026-04-30 18:38 | 51.99107 | 14.97610 | 20854 ft | 343 kts | 305° |
| 2026-04-30 18:39 | 52.00181 | 14.94104 | 20495 ft | 351 kts | 304° |
| 2026-04-30 18:39 | 52.01273 | 14.90530 | 20115 ft | 356 kts | 304° |
| 2026-04-30 18:39 | 52.02371 | 14.86922 | 19731 ft | 356 kts | 303° |
| 2026-04-30 18:39 | 52.03464 | 14.83315 | 19326 ft | 354 kts | 303° |
| 2026-04-30 18:40 | 52.04544 | 14.79737 | 18945 ft | 351 kts | 301° |
| 2026-04-30 18:40 | 52.05357 | 14.75970 | 18516 ft | 357 kts | 289° |
| 2026-04-30 18:40 | 52.05728 | 14.71898 | 17762 ft | 371 kts | 278° |
| 2026-04-30 18:40 | 52.05675 | 14.67650 | 17029 ft | 381 kts | 271° |
| 2026-04-30 18:41 | 52.05517 | 14.63310 | 16280 ft | 388 kts | 271° |
| 2026-04-30 18:41 | 52.05349 | 14.58892 | 15515 ft | 395 kts | 271° |
| 2026-04-30 18:41 | 52.05195 | 14.54463 | 14753 ft | 401 kts | 271° |
| 2026-04-30 18:41 | 52.05051 | 14.49908 | 13925 ft | 406 kts | 271° |
| 2026-04-30 18:42 | 52.04911 | 14.45299 | 13058 ft | 411 kts | 270° |
| 2026-04-30 18:42 | 52.04946 | 14.36230 | 12314 ft | 387 kts | 279° |
| 2026-04-30 18:42 | 52.05249 | 14.31961 | 12115 ft | 374 kts | 281° |
| 2026-04-30 18:45 | 52.07869 | 13.94607 | 10621 ft | 306 kts | 280° |
| 2026-04-30 18:45 | 52.08081 | 13.91218 | 10481 ft | 298 kts | 280° |
| 2026-04-30 18:45 | 52.08289 | 13.87907 | 10338 ft | 290 kts | 280° |
| 2026-04-30 18:46 | 52.08492 | 13.84671 | 10195 ft | 288 kts | 280° |
| 2026-04-30 18:46 | 52.08695 | 13.81433 | 10085 ft | 289 kts | 280° |
| 2026-04-30 18:46 | 52.08899 | 13.78172 | 9943 ft | 291 kts | 280° |
| 2026-04-30 18:46 | 52.09102 | 13.74896 | 9827 ft | 292 kts | 280° |
| 2026-04-30 18:47 | 52.09144 | 13.74232 | 9810 ft | 292 kts | 280° |
| 2026-04-30 18:47 | 52.09344 | 13.70979 | 9692 ft | 293 kts | 280° |
| 2026-04-30 18:47 | 52.09546 | 13.67682 | 9546 ft | 293 kts | 279° |
| 2026-04-30 18:47 | 52.09746 | 13.64381 | 9417 ft | 292 kts | 279° |
| 2026-04-30 18:48 | 52.09958 | 13.61133 | 9312 ft | 285 kts | 281° |
| 2026-04-30 18:48 | 52.10196 | 13.57986 | 9220 ft | 275 kts | 282° |
| 2026-04-30 18:48 | 52.10432 | 13.54950 | 9090 ft | 267 kts | 282° |
| 2026-04-30 18:48 | 52.10662 | 13.51985 | 8911 ft | 261 kts | 282° |
| 2026-04-30 18:49 | 52.10886 | 13.49068 | 8641 ft | 259 kts | 282° |
| 2026-04-30 18:49 | 52.11110 | 13.46152 | 8346 ft | 259 kts | 281° |
| 2026-04-30 18:49 | 52.11327 | 13.43289 | 8068 ft | 258 kts | 281° |
| 2026-04-30 18:49 | 52.11544 | 13.40400 | 7797 ft | 256 kts | 281° |
| 2026-04-30 18:50 | 52.11758 | 13.37528 | 7525 ft | 255 kts | 281° |
| 2026-04-30 18:50 | 52.12076 | 13.34708 | 7120 ft | 250 kts | 297° |
| 2026-04-30 18:50 | 52.13020 | 13.32410 | 6670 ft | 243 kts | 314° |
| 2026-04-30 18:50 | 52.14066 | 13.30252 | 6534 ft | 244 kts | 311° |
| 2026-04-30 18:51 | 52.15159 | 13.28163 | 6428 ft | 238 kts | 328° |
| 2026-04-30 18:51 | 52.16644 | 13.27270 | 6130 ft | 224 kts | 359° |
| 2026-04-30 18:51 | 52.18185 | 13.27111 | 5845 ft | 218 kts | 359° |
| 2026-04-30 18:51 | 52.19662 | 13.26851 | 5740 ft | 208 kts | 357° |
| 2026-04-30 18:52 | 52.21045 | 13.26559 | 5620 ft | 198 kts | 356° |
| 2026-04-30 18:52 | 52.22363 | 13.26258 | 5508 ft | 185 kts | 356° |
| 2026-04-30 18:52 | 52.23624 | 13.25962 | 5191 ft | 182 kts | 356° |
| 2026-04-30 18:52 | 52.24882 | 13.25662 | 4827 ft | 183 kts | 355° |
| 2026-04-30 18:53 | 52.26142 | 13.25357 | 4490 ft | 183 kts | 355° |
| 2026-04-30 18:53 | 52.27387 | 13.25053 | 4206 ft | 178 kts | 355° |
| 2026-04-30 18:53 | 52.28578 | 13.25289 | 3644 ft | 175 kts | 30° |
| 2026-04-30 18:53 | 52.29366 | 13.26773 | 3372 ft | 178 kts | 59° |
| 2026-04-30 18:54 | 52.29971 | 13.28587 | 3251 ft | 184 kts | 61° |
| 2026-04-30 18:54 | 52.30555 | 13.30415 | 3174 ft | 179 kts | 61° |
| 2026-04-30 18:54 | 52.31106 | 13.32296 | 2736 ft | 187 kts | 64° |
| 2026-04-30 18:54 | 52.31599 | 13.34257 | 2272 ft | 184 kts | 67° |
| 2026-04-30 18:55 | 52.32007 | 13.36203 | 1807 ft | 180 kts | 69° |
| 2026-04-30 18:55 | 52.32875 | 13.40009 | 936 ft | 174 kts | 65° |
| 2026-04-30 18:55 | 52.33306 | 13.41742 | 692 ft | 156 kts | 66° |
| 2026-04-30 18:56 | 52.34096 | 13.44991 | 376 ft | 152 kts | 68° |
| 2026-04-30 18:56 | 52.34459 | 13.46567 | 239 ft | 149 kts | 66° |
| 2026-04-30 18:56 | 52.34834 | 13.48078 | 170 ft | 136 kts | 66° |
| 2026-04-30 18:57 | 52.35339 | 13.50184 | 159 ft | 52 kts | 68° |
| 2026-04-30 18:57 | 52.35436 | 13.50480 | 159 ft | 14 kts | 44° |
| 2026-04-30 18:57 | 52.35465 | 13.50526 | 159 ft | 10 kts | 44° |
| 2026-04-30 18:58 | 52.35593 | 13.50699 | 159 ft | 5 kts | 39° |
| 2026-04-30 18:58 | 52.35594 | 13.50700 | 159 ft | 0 kts | 39° |
| 2026-04-30 18:58 | 52.35596 | 13.50703 | 159 ft | 0 kts | 39° |
| 2026-04-30 18:59 | 52.35603 | 13.50712 | 159 ft | 0 kts | 39° |
| 2026-04-30 19:00 | 52.35612 | 13.50722 | 159 ft | 9 kts | 30° |
| 2026-04-30 19:00 | 52.35674 | 13.50724 | 159 ft | 8 kts | 353° |
| 2026-04-30 19:00 | 52.35784 | 13.50657 | 159 ft | 9 kts | 340° |
| 2026-04-30 19:01 | 52.35902 | 13.50645 | 159 ft | 12 kts | 3° |
| 2026-04-30 19:01 | 52.36016 | 13.50591 | 159 ft | 19 kts | 338° |
| 2026-04-30 19:02 | 52.36222 | 13.50457 | 159 ft | 15 kts | 339° |
| 2026-04-30 19:02 | 52.36370 | 13.50368 | 159 ft | 9 kts | 339° |
| 2026-04-30 19:03 | 52.36489 | 13.50289 | 159 ft | 11 kts | 338° |
| 2026-04-30 19:03 | 52.36587 | 13.50242 | 159 ft | 5 kts | 25° |
| 2026-04-30 19:04 | 52.36609 | 13.50328 | 159 ft | 5 kts | 70° |
| 2026-04-30 19:04 | 52.36629 | 13.50412 | 159 ft | 3 kts | 69° |
| 2026-04-30 19:05 | 52.36634 | 13.50434 | 159 ft | 0 kts | 69° |